sensor_id;sensor_type;location;lat;lon;timestamp;pressure;altitude;pressure_sealevel;temperature;humidity
53522;BME280;39398;48.382;9.802;2022-07-29T00:00:05;93851.03;;;17.84;92.47
53522;BME280;39398;48.382;9.802;2022-07-29T00:01:06;93850.69;;;17.81;92.07
53522;BME280;39398;48.382;9.802;2022-07-29T00:02:19;93848.03;;;17.81;92.13
53522;BME280;39398;48.382;9.802;2022-07-29T00:03:21;93845.34;;;17.81;92.09
53522;BME280;39398;48.382;9.802;2022-07-29T00:04:23;93840.84;;;17.58;92.41
53522;BME280;39398;48.382;9.802;2022-07-29T00:05:24;93845.56;;;17.67;92.20
53522;BME280;39398;48.382;9.802;2022-07-29T00:06:26;93837.22;;;17.64;92.74
53522;BME280;39398;48.382;9.802;2022-07-29T00:07:28;93841.31;;;17.55;93.21
53522;BME280;39398;48.382;9.802;2022-07-29T00:08:29;93842.50;;;17.59;93.28
53522;BME280;39398;48.382;9.802;2022-07-29T00:09:32;93839.38;;;17.50;93.44
53522;BME280;39398;48.382;9.802;2022-07-29T00:10:50;93847.03;;;17.58;93.75
53522;BME280;39398;48.382;9.802;2022-07-29T00:11:52;93840.03;;;17.57;93.80
53522;BME280;39398;48.382;9.802;2022-07-29T00:12:54;93847.78;;;17.71;93.56
53522;BME280;39398;48.382;9.802;2022-07-29T00:13:56;93830.75;;;17.60;93.54
53522;BME280;39398;48.382;9.802;2022-07-29T00:14:58;93844.50;;;17.80;93.19
53522;BME280;39398;48.382;9.802;2022-07-29T00:15:59;93836.06;;;17.72;92.94
53522;BME280;39398;48.382;9.802;2022-07-29T00:17:05;93832.34;;;17.73;92.79
53522;BME280;39398;48.382;9.802;2022-07-29T00:18:07;93830.84;;;17.77;92.58
53522;BME280;39398;48.382;9.802;2022-07-29T00:19:08;93828.28;;;17.82;92.16
53522;BME280;39398;48.382;9.802;2022-07-29T00:20:11;93821.78;;;17.78;92.23
53522;BME280;39398;48.382;9.802;2022-07-29T00:21:12;93829.66;;;17.73;92.41
53522;BME280;39398;48.382;9.802;2022-07-29T00:22:14;93824.81;;;17.70;92.85
53522;BME280;39398;48.382;9.802;2022-07-29T00:23:16;93818.66;;;17.69;92.64
53522;BME280;39398;48.382;9.802;2022-07-29T00:24:17;93816.56;;;17.71;92.71
53522;BME280;39398;48.382;9.802;2022-07-29T00:25:20;93812.97;;;17.77;92.28
53522;BME280;39398;48.382;9.802;2022-07-29T00:26:22;93817.81;;;17.80;92.05
53522;BME280;39398;48.382;9.802;2022-07-29T00:27:24;93813.88;;;17.83;91.78
53522;BME280;39398;48.382;9.802;2022-07-29T00:28:25;93812.47;;;17.80;91.96
53522;BME280;39398;48.382;9.802;2022-07-29T00:29:27;93815.47;;;17.55;92.98
53522;BME280;39398;48.382;9.802;2022-07-29T00:30:35;93811.53;;;17.46;93.90
53522;BME280;39398;48.382;9.802;2022-07-29T00:31:36;93808.63;;;17.48;94.18
53522;BME280;39398;48.382;9.802;2022-07-29T00:32:38;93816.63;;;17.48;94.14
53522;BME280;39398;48.382;9.802;2022-07-29T00:33:39;93807.97;;;17.29;94.78
53522;BME280;39398;48.382;9.802;2022-07-29T00:34:41;93799.63;;;17.25;95.03
53522;BME280;39398;48.382;9.802;2022-07-29T00:35:42;93799.75;;;17.18;95.35
53522;BME280;39398;48.382;9.802;2022-07-29T00:36:44;93795.22;;;17.19;95.28
53522;BME280;39398;48.382;9.802;2022-07-29T00:37:45;93798.56;;;17.38;95.10
53522;BME280;39398;48.382;9.802;2022-07-29T00:38:47;93796.97;;;17.25;94.97
53522;BME280;39398;48.382;9.802;2022-07-29T00:39:48;93799.06;;;17.23;94.90
53522;BME280;39398;48.382;9.802;2022-07-29T00:40:51;93790.94;;;17.18;95.25
53522;BME280;39398;48.382;9.802;2022-07-29T00:41:53;93791.44;;;17.03;95.65
53522;BME280;39398;48.382;9.802;2022-07-29T00:42:54;93794.69;;;17.05;96.12
53522;BME280;39398;48.382;9.802;2022-07-29T00:43:56;93790.38;;;17.16;95.65
53522;BME280;39398;48.382;9.802;2022-07-29T00:44:57;93788.50;;;17.16;95.20
53522;BME280;39398;48.382;9.802;2022-07-29T00:45:58;93785.50;;;17.13;95.12
53522;BME280;39398;48.382;9.802;2022-07-29T00:47:00;93786.75;;;17.22;94.88
53522;BME280;39398;48.382;9.802;2022-07-29T00:48:02;93790.00;;;17.24;94.94
53522;BME280;39398;48.382;9.802;2022-07-29T00:49:03;93783.41;;;17.15;94.87
53522;BME280;39398;48.382;9.802;2022-07-29T00:50:06;93781.22;;;17.12;95.34
53522;BME280;39398;48.382;9.802;2022-07-29T00:51:08;93782.41;;;17.04;95.16
53522;BME280;39398;48.382;9.802;2022-07-29T00:52:10;93787.50;;;17.06;95.12
53522;BME280;39398;48.382;9.802;2022-07-29T00:53:12;93777.63;;;17.06;95.40
53522;BME280;39398;48.382;9.802;2022-07-29T00:54:14;93784.22;;;17.04;95.33
53522;BME280;39398;48.382;9.802;2022-07-29T00:55:16;93782.97;;;17.06;95.16
53522;BME280;39398;48.382;9.802;2022-07-29T00:56:19;93780.50;;;17.16;94.83
53522;BME280;39398;48.382;9.802;2022-07-29T00:57:21;93785.38;;;17.19;94.60
53522;BME280;39398;48.382;9.802;2022-07-29T00:58:23;93780.03;;;17.19;94.69
53522;BME280;39398;48.382;9.802;2022-07-29T00:59:25;93783.88;;;17.12;94.69
53522;BME280;39398;48.382;9.802;2022-07-29T01:00:35;93780.16;;;17.13;94.97
53522;BME280;39398;48.382;9.802;2022-07-29T01:01:37;93784.13;;;17.10;94.77
53522;BME280;39398;48.382;9.802;2022-07-29T01:02:38;93777.63;;;17.06;94.95
53522;BME280;39398;48.382;9.802;2022-07-29T01:03:40;93778.09;;;17.15;94.84
53522;BME280;39398;48.382;9.802;2022-07-29T01:04:41;93773.47;;;17.10;95.02
53522;BME280;39398;48.382;9.802;2022-07-29T01:05:44;93770.53;;;17.12;94.97
53522;BME280;39398;48.382;9.802;2022-07-29T01:06:53;93766.34;;;17.28;94.62
53522;BME280;39398;48.382;9.802;2022-07-29T01:07:57;93774.81;;;17.13;94.58
53522;BME280;39398;48.382;9.802;2022-07-29T01:08:59;93768.59;;;17.07;94.99
53522;BME280;39398;48.382;9.802;2022-07-29T01:10:01;93771.03;;;17.09;95.07
53522;BME280;39398;48.382;9.802;2022-07-29T01:11:03;93764.75;;;17.15;95.04
53522;BME280;39398;48.382;9.802;2022-07-29T01:12:07;93765.56;;;17.04;94.90
53522;BME280;39398;48.382;9.802;2022-07-29T01:13:09;93768.81;;;17.06;95.10
53522;BME280;39398;48.382;9.802;2022-07-29T01:14:11;93759.41;;;17.15;94.98
53522;BME280;39398;48.382;9.802;2022-07-29T01:15:14;93765.69;;;17.09;94.82
53522;BME280;39398;48.382;9.802;2022-07-29T01:16:21;93763.69;;;17.16;94.88
53522;BME280;39398;48.382;9.802;2022-07-29T01:17:29;93760.81;;;17.17;94.83
53522;BME280;39398;48.382;9.802;2022-07-29T01:18:34;93761.59;;;17.30;94.47
53522;BME280;39398;48.382;9.802;2022-07-29T01:19:47;93765.63;;;17.32;93.97
53522;BME280;39398;48.382;9.802;2022-07-29T01:21:08;93758.47;;;17.21;93.85
53522;BME280;39398;48.382;9.802;2022-07-29T01:22:26;93753.59;;;17.18;94.25
53522;BME280;39398;48.382;9.802;2022-07-29T01:23:57;93758.47;;;17.21;94.43
53522;BME280;39398;48.382;9.802;2022-07-29T01:25:03;93760.41;;;17.26;94.09
53522;BME280;39398;48.382;9.802;2022-07-29T01:26:23;93760.66;;;17.24;94.23
53522;BME280;39398;48.382;9.802;2022-07-29T01:27:41;93759.75;;;17.07;94.23
53522;BME280;39398;48.382;9.802;2022-07-29T01:29:00;93748.38;;;17.23;93.99
53522;BME280;39398;48.382;9.802;2022-07-29T01:30:08;93755.06;;;17.26;93.52
53522;BME280;39398;48.382;9.802;2022-07-29T01:31:15;93743.56;;;17.37;92.94
53522;BME280;39398;48.382;9.802;2022-07-29T01:32:27;93743.59;;;17.25;92.61
53522;BME280;39398;48.382;9.802;2022-07-29T01:33:30;93746.28;;;17.25;92.78
53522;BME280;39398;48.382;9.802;2022-07-29T01:34:39;93742.56;;;17.26;92.32
53522;BME280;39398;48.382;9.802;2022-07-29T01:35:43;93737.72;;;17.23;92.42
53522;BME280;39398;48.382;9.802;2022-07-29T01:36:48;93738.06;;;17.15;92.75
53522;BME280;39398;48.382;9.802;2022-07-29T01:37:55;93743.16;;;17.16;92.83
53522;BME280;39398;48.382;9.802;2022-07-29T01:39:04;93741.06;;;17.18;92.70
53522;BME280;39398;48.382;9.802;2022-07-29T01:40:11;93744.31;;;17.20;92.41
53522;BME280;39398;48.382;9.802;2022-07-29T01:41:16;93742.91;;;17.30;92.02
53522;BME280;39398;48.382;9.802;2022-07-29T01:42:23;93738.84;;;17.27;91.62
53522;BME280;39398;48.382;9.802;2022-07-29T01:43:36;93742.56;;;17.26;92.01
53522;BME280;39398;48.382;9.802;2022-07-29T01:44:45;93737.94;;;17.22;91.87
53522;BME280;39398;48.382;9.802;2022-07-29T01:45:53;93732.59;;;17.22;91.59
53522;BME280;39398;48.382;9.802;2022-07-29T01:47:00;93733.19;;;17.24;91.55
53522;BME280;39398;48.382;9.802;2022-07-29T01:48:05;93735.94;;;17.29;91.48
53522;BME280;39398;48.382;9.802;2022-07-29T01:49:10;93725.38;;;17.34;90.70
53522;BME280;39398;48.382;9.802;2022-07-29T01:50:14;93735.91;;;17.40;90.66
53522;BME280;39398;48.382;9.802;2022-07-29T01:51:19;93735.53;;;17.49;90.23
53522;BME280;39398;48.382;9.802;2022-07-29T01:52:26;93736.00;;;17.46;90.30
53522;BME280;39398;48.382;9.802;2022-07-29T01:53:31;93729.50;;;17.41;89.76
53522;BME280;39398;48.382;9.802;2022-07-29T01:54:41;93736.56;;;17.48;89.50
53522;BME280;39398;48.382;9.802;2022-07-29T01:55:44;93731.94;;;17.43;90.01
53522;BME280;39398;48.382;9.802;2022-07-29T01:56:48;93734.38;;;17.44;89.58
53522;BME280;39398;48.382;9.802;2022-07-29T01:57:51;93734.03;;;17.41;89.76
53522;BME280;39398;48.382;9.802;2022-07-29T01:58:53;93735.00;;;17.35;89.97
53522;BME280;39398;48.382;9.802;2022-07-29T01:59:58;93736.47;;;17.42;90.21
53522;BME280;39398;48.382;9.802;2022-07-29T02:01:02;93739.34;;;17.53;89.81
53522;BME280;39398;48.382;9.802;2022-07-29T02:02:04;93740.28;;;17.47;90.17
53522;BME280;39398;48.382;9.802;2022-07-29T02:03:11;93727.94;;;17.29;90.56
53522;BME280;39398;48.382;9.802;2022-07-29T02:04:15;93732.44;;;17.40;90.04
53522;BME280;39398;48.382;9.802;2022-07-29T02:05:31;93735.25;;;17.22;90.29
53522;BME280;39398;48.382;9.802;2022-07-29T02:06:34;93731.47;;;17.17;90.79
53522;BME280;39398;48.382;9.802;2022-07-29T02:07:40;93730.44;;;17.07;91.83
53522;BME280;39398;48.382;9.802;2022-07-29T02:08:44;93733.06;;;17.18;91.43
53522;BME280;39398;48.382;9.802;2022-07-29T02:09:47;93726.06;;;17.01;91.69
53522;BME280;39398;48.382;9.802;2022-07-29T02:10:51;93723.88;;;16.98;92.26
53522;BME280;39398;48.382;9.802;2022-07-29T02:11:54;93722.59;;;16.88;92.82
53522;BME280;39398;48.382;9.802;2022-07-29T02:12:57;93716.91;;;16.96;93.05
53522;BME280;39398;48.382;9.802;2022-07-29T02:14:01;93719.56;;;16.96;92.93
53522;BME280;39398;48.382;9.802;2022-07-29T02:15:06;93722.44;;;17.07;92.94
53522;BME280;39398;48.382;9.802;2022-07-29T02:16:11;93725.22;;;17.12;93.02
53522;BME280;39398;48.382;9.802;2022-07-29T02:17:17;93721.41;;;17.08;92.74
53522;BME280;39398;48.382;9.802;2022-07-29T02:18:23;93728.72;;;17.01;93.37
53522;BME280;39398;48.382;9.802;2022-07-29T02:19:27;93724.63;;;17.10;93.59
53522;BME280;39398;48.382;9.802;2022-07-29T02:20:30;93729.25;;;17.14;92.71
53522;BME280;39398;48.382;9.802;2022-07-29T02:21:33;93720.00;;;17.05;92.84
53522;BME280;39398;48.382;9.802;2022-07-29T02:22:38;93712.94;;;17.11;93.71
53522;BME280;39398;48.382;9.802;2022-07-29T02:23:40;93714.53;;;17.12;93.07
53522;BME280;39398;48.382;9.802;2022-07-29T02:24:52;93718.59;;;17.14;93.10
53522;BME280;39398;48.382;9.802;2022-07-29T02:25:56;93722.53;;;17.12;92.87
53522;BME280;39398;48.382;9.802;2022-07-29T02:26:58;93720.78;;;17.17;92.21
53522;BME280;39398;48.382;9.802;2022-07-29T02:28:02;93720.66;;;17.24;92.25
53522;BME280;39398;48.382;9.802;2022-07-29T02:29:06;93721.59;;;17.18;91.85
53522;BME280;39398;48.382;9.802;2022-07-29T02:30:12;93714.84;;;17.27;91.77
53522;BME280;39398;48.382;9.802;2022-07-29T02:31:15;93719.13;;;17.28;91.21
53522;BME280;39398;48.382;9.802;2022-07-29T02:32:19;93715.94;;;17.14;91.31
53522;BME280;39398;48.382;9.802;2022-07-29T02:33:23;93717.31;;;17.17;91.40
53522;BME280;39398;48.382;9.802;2022-07-29T02:34:25;93715.13;;;17.14;91.24
53522;BME280;39398;48.382;9.802;2022-07-29T02:35:28;93716.16;;;17.13;91.29
53522;BME280;39398;48.382;9.802;2022-07-29T02:36:36;93717.19;;;17.24;90.78
53522;BME280;39398;48.382;9.802;2022-07-29T02:37:39;93715.53;;;17.23;90.19
53522;BME280;39398;48.382;9.802;2022-07-29T02:38:42;93714.72;;;17.22;90.32
53522;BME280;39398;48.382;9.802;2022-07-29T02:39:46;93717.41;;;17.22;90.27
53522;BME280;39398;48.382;9.802;2022-07-29T02:40:49;93707.97;;;17.31;89.78
53522;BME280;39398;48.382;9.802;2022-07-29T02:41:55;93709.50;;;17.27;89.66
53522;BME280;39398;48.382;9.802;2022-07-29T02:43:00;93720.66;;;17.24;89.57
53522;BME280;39398;48.382;9.802;2022-07-29T02:44:06;93708.69;;;17.27;89.06
53522;BME280;39398;48.382;9.802;2022-07-29T02:45:11;93713.31;;;17.31;88.67
53522;BME280;39398;48.382;9.802;2022-07-29T02:46:16;93716.94;;;17.25;88.82
53522;BME280;39398;48.382;9.802;2022-07-29T02:47:34;93713.56;;;17.30;88.41
53522;BME280;39398;48.382;9.802;2022-07-29T02:48:48;93712.41;;;17.26;88.48
53522;BME280;39398;48.382;9.802;2022-07-29T02:49:56;93709.97;;;17.24;88.65
53522;BME280;39398;48.382;9.802;2022-07-29T02:51:05;93705.00;;;17.16;88.27
53522;BME280;39398;48.382;9.802;2022-07-29T02:52:11;93708.72;;;17.15;88.42
53522;BME280;39398;48.382;9.802;2022-07-29T02:53:19;93711.16;;;17.16;88.20
53522;BME280;39398;48.382;9.802;2022-07-29T02:54:31;93714.06;;;17.15;88.17
53522;BME280;39398;48.382;9.802;2022-07-29T02:55:38;93705.25;;;17.14;88.35
53522;BME280;39398;48.382;9.802;2022-07-29T02:56:42;93710.47;;;17.09;87.85
53522;BME280;39398;48.382;9.802;2022-07-29T02:57:47;93705.06;;;17.04;88.03
53522;BME280;39398;48.382;9.802;2022-07-29T02:58:57;93706.34;;;17.02;89.23
53522;BME280;39398;48.382;9.802;2022-07-29T03:00:04;93709.94;;;16.95;89.70
53522;BME280;39398;48.382;9.802;2022-07-29T03:01:11;93709.16;;;16.95;89.03
53522;BME280;39398;48.382;9.802;2022-07-29T03:02:21;93703.22;;;16.93;88.73
53522;BME280;39398;48.382;9.802;2022-07-29T03:03:25;93707.03;;;16.97;88.52
53522;BME280;39398;48.382;9.802;2022-07-29T03:04:30;93706.22;;;16.96;88.81
53522;BME280;39398;48.382;9.802;2022-07-29T03:05:34;93706.34;;;16.90;88.45
53522;BME280;39398;48.382;9.802;2022-07-29T03:06:37;93707.16;;;16.90;87.77
53522;BME280;39398;48.382;9.802;2022-07-29T03:07:40;93705.75;;;17.00;88.01
53522;BME280;39398;48.382;9.802;2022-07-29T03:08:44;93712.16;;;16.99;87.59
53522;BME280;39398;48.382;9.802;2022-07-29T03:09:47;93700.41;;;17.00;87.95
53522;BME280;39398;48.382;9.802;2022-07-29T03:10:51;93705.53;;;17.01;88.01
53522;BME280;39398;48.382;9.802;2022-07-29T03:11:53;93702.63;;;16.91;87.89
53522;BME280;39398;48.382;9.802;2022-07-29T03:12:56;93703.94;;;16.88;87.67
53522;BME280;39398;48.382;9.802;2022-07-29T03:13:59;93698.16;;;16.80;88.02
53522;BME280;39398;48.382;9.802;2022-07-29T03:15:02;93700.66;;;16.74;87.87
53522;BME280;39398;48.382;9.802;2022-07-29T03:16:05;93697.00;;;16.76;87.79
53522;BME280;39398;48.382;9.802;2022-07-29T03:17:09;93707.88;;;16.74;87.44
53522;BME280;39398;48.382;9.802;2022-07-29T03:18:11;93698.47;;;16.71;87.42
53522;BME280;39398;48.382;9.802;2022-07-29T03:19:13;93693.97;;;16.72;87.01
53522;BME280;39398;48.382;9.802;2022-07-29T03:20:17;93700.25;;;16.66;87.06
53522;BME280;39398;48.382;9.802;2022-07-29T03:21:19;93693.63;;;16.68;87.44
53522;BME280;39398;48.382;9.802;2022-07-29T03:22:21;93696.06;;;16.70;87.28
53522;BME280;39398;48.382;9.802;2022-07-29T03:23:23;93685.06;;;16.66;87.11
53522;BME280;39398;48.382;9.802;2022-07-29T03:24:26;93688.19;;;16.75;86.85
53522;BME280;39398;48.382;9.802;2022-07-29T03:25:28;93689.13;;;16.69;86.37
53522;BME280;39398;48.382;9.802;2022-07-29T03:26:29;93685.88;;;16.55;86.80
53522;BME280;39398;48.382;9.802;2022-07-29T03:27:31;93688.06;;;16.58;86.73
53522;BME280;39398;48.382;9.802;2022-07-29T03:28:32;93686.81;;;16.61;86.63
53522;BME280;39398;48.382;9.802;2022-07-29T03:29:34;93685.53;;;16.51;86.64
53522;BME280;39398;48.382;9.802;2022-07-29T03:30:36;93685.06;;;16.55;87.35
53522;BME280;39398;48.382;9.802;2022-07-29T03:31:39;93680.00;;;16.53;86.52
53522;BME280;39398;48.382;9.802;2022-07-29T03:32:45;93683.47;;;16.42;86.81
53522;BME280;39398;48.382;9.802;2022-07-29T03:33:46;93689.00;;;16.52;86.52
53522;BME280;39398;48.382;9.802;2022-07-29T03:34:48;93682.88;;;16.51;86.55
53522;BME280;39398;48.382;9.802;2022-07-29T03:35:49;93675.00;;;16.57;85.82
53522;BME280;39398;48.382;9.802;2022-07-29T03:36:51;93683.00;;;16.57;86.26
53522;BME280;39398;48.382;9.802;2022-07-29T03:37:52;93680.31;;;16.57;85.99
53522;BME280;39398;48.382;9.802;2022-07-29T03:38:54;93689.00;;;16.52;85.65
53522;BME280;39398;48.382;9.802;2022-07-29T03:39:57;93684.72;;;16.51;85.90
53522;BME280;39398;48.382;9.802;2022-07-29T03:41:03;93677.19;;;16.48;86.26
53522;BME280;39398;48.382;9.802;2022-07-29T03:42:08;93681.59;;;16.54;86.08
53522;BME280;39398;48.382;9.802;2022-07-29T03:43:13;93688.19;;;16.51;86.06
53522;BME280;39398;48.382;9.802;2022-07-29T03:44:17;93686.94;;;16.54;86.59
53522;BME280;39398;48.382;9.802;2022-07-29T03:45:19;93682.75;;;16.58;85.49
53522;BME280;39398;48.382;9.802;2022-07-29T03:46:23;93687.53;;;16.44;85.54
53522;BME280;39398;48.382;9.802;2022-07-29T03:47:28;93683.72;;;16.40;85.83
53522;BME280;39398;48.382;9.802;2022-07-29T03:48:55;93686.25;;;16.35;85.69
53522;BME280;39398;48.382;9.802;2022-07-29T03:50:01;93685.31;;;16.30;86.43
53522;BME280;39398;48.382;9.802;2022-07-29T03:51:03;93686.25;;;16.23;86.60
53522;BME280;39398;48.382;9.802;2022-07-29T03:52:05;93687.16;;;16.17;86.86
53522;BME280;39398;48.382;9.802;2022-07-29T03:53:07;93687.63;;;16.26;87.35
53522;BME280;39398;48.382;9.802;2022-07-29T03:54:09;93687.03;;;16.24;87.42
53522;BME280;39398;48.382;9.802;2022-07-29T03:55:11;93689.03;;;16.28;86.97
53522;BME280;39398;48.382;9.802;2022-07-29T03:56:15;93682.91;;;16.28;87.14
53522;BME280;39398;48.382;9.802;2022-07-29T03:57:18;93686.72;;;16.32;86.68
53522;BME280;39398;48.382;9.802;2022-07-29T03:58:23;93687.06;;;16.36;86.61
53522;BME280;39398;48.382;9.802;2022-07-29T03:59:27;93688.31;;;16.33;86.41
53522;BME280;39398;48.382;9.802;2022-07-29T04:00:31;93684.97;;;16.26;86.61
53522;BME280;39398;48.382;9.802;2022-07-29T04:01:34;93691.69;;;16.17;86.99
53522;BME280;39398;48.382;9.802;2022-07-29T04:02:36;93681.25;;;16.27;87.02
53522;BME280;39398;48.382;9.802;2022-07-29T04:03:39;93691.34;;;16.25;86.77
53522;BME280;39398;48.382;9.802;2022-07-29T04:04:42;93691.09;;;16.26;86.76
53522;BME280;39398;48.382;9.802;2022-07-29T04:05:43;93684.88;;;16.21;86.41
53522;BME280;39398;48.382;9.802;2022-07-29T04:06:45;93688.69;;;16.25;86.79
53522;BME280;39398;48.382;9.802;2022-07-29T04:07:48;93695.41;;;16.16;87.03
53522;BME280;39398;48.382;9.802;2022-07-29T04:08:50;93691.22;;;16.20;87.15
53522;BME280;39398;48.382;9.802;2022-07-29T04:09:51;93685.44;;;16.23;86.95
53522;BME280;39398;48.382;9.802;2022-07-29T04:10:53;93689.97;;;16.22;86.96
53522;BME280;39398;48.382;9.802;2022-07-29T04:11:54;93687.53;;;16.21;87.35
53522;BME280;39398;48.382;9.802;2022-07-29T04:13:03;93691.56;;;16.23;87.41
53522;BME280;39398;48.382;9.802;2022-07-29T04:14:04;93691.81;;;16.22;87.63
53522;BME280;39398;48.382;9.802;2022-07-29T04:15:07;93691.22;;;16.20;87.77
53522;BME280;39398;48.382;9.802;2022-07-29T04:16:09;93692.50;;;16.29;87.95
53522;BME280;39398;48.382;9.802;2022-07-29T04:17:10;93695.63;;;16.38;87.88
53522;BME280;39398;48.382;9.802;2022-07-29T04:18:12;93695.03;;;16.36;87.71
53522;BME280;39398;48.382;9.802;2022-07-29T04:19:13;93695.16;;;16.41;87.85
53522;BME280;39398;48.382;9.802;2022-07-29T04:20:16;93692.03;;;16.44;87.66
53522;BME280;39398;48.382;9.802;2022-07-29T04:21:17;93696.66;;;16.48;87.63
53522;BME280;39398;48.382;9.802;2022-07-29T04:22:19;93696.91;;;16.47;87.68
53522;BME280;39398;48.382;9.802;2022-07-29T04:23:20;93694.00;;;16.48;87.87
53522;BME280;39398;48.382;9.802;2022-07-29T04:24:22;93701.44;;;16.35;88.26
53522;BME280;39398;48.382;9.802;2022-07-29T04:25:23;93696.53;;;16.55;88.06
53522;BME280;39398;48.382;9.802;2022-07-29T04:26:25;93703.72;;;16.43;88.22
53522;BME280;39398;48.382;9.802;2022-07-29T04:27:26;93704.53;;;16.55;87.86
53522;BME280;39398;48.382;9.802;2022-07-29T04:28:28;93705.59;;;16.54;88.11
53522;BME280;39398;48.382;9.802;2022-07-29T04:29:29;93701.66;;;16.57;88.34
53522;BME280;39398;48.382;9.802;2022-07-29T04:30:32;93704.19;;;16.63;88.04
53522;BME280;39398;48.382;9.802;2022-07-29T04:31:33;93705.91;;;16.69;88.05
53522;BME280;39398;48.382;9.802;2022-07-29T04:32:35;93701.72;;;16.73;87.90
53522;BME280;39398;48.382;9.802;2022-07-29T04:33:37;93705.44;;;16.84;87.68
53522;BME280;39398;48.382;9.802;2022-07-29T04:34:38;93702.22;;;16.82;87.42
53522;BME280;39398;48.382;9.802;2022-07-29T04:35:41;93704.41;;;16.85;87.55
53522;BME280;39398;48.382;9.802;2022-07-29T04:36:51;93704.41;;;16.85;87.12
53522;BME280;39398;48.382;9.802;2022-07-29T04:37:52;93709.16;;;16.83;87.22
53522;BME280;39398;48.382;9.802;2022-07-29T04:38:54;93703.34;;;16.74;87.56
53522;BME280;39398;48.382;9.802;2022-07-29T04:39:55;93711.16;;;16.76;87.64
53522;BME280;39398;48.382;9.802;2022-07-29T04:40:57;93707.19;;;16.55;88.54
53522;BME280;39398;48.382;9.802;2022-07-29T04:41:58;93708.94;;;16.26;89.79
53522;BME280;39398;48.382;9.802;2022-07-29T04:43:00;93710.66;;;16.20;90.60
53522;BME280;39398;48.382;9.802;2022-07-29T04:44:06;93707.00;;;16.21;90.56
53522;BME280;39398;48.382;9.802;2022-07-29T04:45:09;93705.34;;;16.20;90.75
53522;BME280;39398;48.382;9.802;2022-07-29T04:46:11;93706.50;;;16.13;91.47
53522;BME280;39398;48.382;9.802;2022-07-29T04:47:12;93700.38;;;16.12;91.35
53522;BME280;39398;48.382;9.802;2022-07-29T04:48:14;93708.72;;;16.16;91.39
53522;BME280;39398;48.382;9.802;2022-07-29T04:49:15;93702.56;;;16.27;90.83
53522;BME280;39398;48.382;9.802;2022-07-29T04:50:17;93707.66;;;16.17;91.32
53522;BME280;39398;48.382;9.802;2022-07-29T04:51:20;93704.66;;;16.25;91.75
53522;BME280;39398;48.382;9.802;2022-07-29T04:52:21;93712.06;;;16.23;91.56
53522;BME280;39398;48.382;9.802;2022-07-29T04:53:23;93715.44;;;16.18;92.00
53522;BME280;39398;48.382;9.802;2022-07-29T04:54:24;93712.88;;;16.12;92.38
53522;BME280;39398;48.382;9.802;2022-07-29T04:55:26;93719.22;;;16.11;92.76
53522;BME280;39398;48.382;9.802;2022-07-29T04:56:28;93715.75;;;16.10;93.28
53522;BME280;39398;48.382;9.802;2022-07-29T04:57:30;93707.31;;;16.13;92.93
53522;BME280;39398;48.382;9.802;2022-07-29T04:58:33;93709.41;;;16.23;92.64
53522;BME280;39398;48.382;9.802;2022-07-29T04:59:35;93707.78;;;16.22;92.56
53522;BME280;39398;48.382;9.802;2022-07-29T05:00:36;93707.44;;;16.18;92.57
53522;BME280;39398;48.382;9.802;2022-07-29T05:01:38;93706.63;;;16.30;92.14
53522;BME280;39398;48.382;9.802;2022-07-29T05:02:39;93715.44;;;16.42;92.13
53522;BME280;39398;48.382;9.802;2022-07-29T05:03:41;93713.91;;;16.46;91.82
53522;BME280;39398;48.382;9.802;2022-07-29T05:04:43;93717.63;;;16.45;91.56
53522;BME280;39398;48.382;9.802;2022-07-29T05:05:44;93713.91;;;16.58;91.21
53522;BME280;39398;48.382;9.802;2022-07-29T05:06:47;93716.59;;;16.58;91.51
53522;BME280;39398;48.382;9.802;2022-07-29T05:07:49;93715.31;;;16.48;91.23
53522;BME280;39398;48.382;9.802;2022-07-29T05:08:50;93717.03;;;16.55;91.05
53522;BME280;39398;48.382;9.802;2022-07-29T05:09:52;93722.72;;;16.58;90.91
53522;BME280;39398;48.382;9.802;2022-07-29T05:10:53;93714.38;;;16.66;90.62
53522;BME280;39398;48.382;9.802;2022-07-29T05:11:55;93724.22;;;16.66;91.02
53522;BME280;39398;48.382;9.802;2022-07-29T05:12:56;93721.66;;;16.71;90.82
53522;BME280;39398;48.382;9.802;2022-07-29T05:13:58;93720.16;;;16.75;90.37
53522;BME280;39398;48.382;9.802;2022-07-29T05:14:59;93719.59;;;16.85;90.38
53522;BME280;39398;48.382;9.802;2022-07-29T05:16:01;93725.69;;;16.97;89.68
53522;BME280;39398;48.382;9.802;2022-07-29T05:17:03;93727.69;;;17.02;89.58
53522;BME280;39398;48.382;9.802;2022-07-29T05:18:05;93726.63;;;17.03;89.07
53522;BME280;39398;48.382;9.802;2022-07-29T05:19:07;93726.47;;;17.09;89.47
53522;BME280;39398;48.382;9.802;2022-07-29T05:20:14;93722.25;;;17.25;88.35
53522;BME280;39398;48.382;9.802;2022-07-29T05:21:16;93726.81;;;17.13;87.91
53522;BME280;39398;48.382;9.802;2022-07-29T05:22:19;93726.22;;;17.23;87.58
53522;BME280;39398;48.382;9.802;2022-07-29T05:23:21;93727.84;;;17.24;87.40
53522;BME280;39398;48.382;9.802;2022-07-29T05:24:22;93728.63;;;17.36;86.89
53522;BME280;39398;48.382;9.802;2022-07-29T05:25:24;93726.19;;;17.34;87.21
53522;BME280;39398;48.382;9.802;2022-07-29T05:26:44;93731.63;;;17.39;86.83
53522;BME280;39398;48.382;9.802;2022-07-29T05:27:45;93733.28;;;17.57;86.88
53522;BME280;39398;48.382;9.802;2022-07-29T05:28:51;93736.75;;;17.58;86.94
53522;BME280;39398;48.382;9.802;2022-07-29T05:29:52;93738.53;;;17.52;86.89
53522;BME280;39398;48.382;9.802;2022-07-29T05:30:54;93733.41;;;17.51;86.44
53522;BME280;39398;48.382;9.802;2022-07-29T05:31:55;93734.03;;;17.70;86.46
53522;BME280;39398;48.382;9.802;2022-07-29T05:32:57;93736.53;;;17.76;86.82
53522;BME280;39398;48.382;9.802;2022-07-29T05:33:58;93734.56;;;17.83;86.63
53522;BME280;39398;48.382;9.802;2022-07-29T05:35:00;93734.19;;;17.92;86.36
53522;BME280;39398;48.382;9.802;2022-07-29T05:36:02;93736.47;;;18.00;85.60
53522;BME280;39398;48.382;9.802;2022-07-29T05:37:04;93742.34;;;17.85;85.31
53522;BME280;39398;48.382;9.802;2022-07-29T05:38:06;93745.78;;;18.14;84.86